createdAt,value
2023-08-09T00:00:08.964Z,92834.19
2023-08-09T00:02:51.651Z,92838.69
2023-08-09T00:05:36.536Z,92836.25
2023-08-09T00:08:19.404Z,92829.84
2023-08-09T00:11:02.382Z,92834.41
2023-08-09T00:13:45.296Z,92836.13
2023-08-09T00:16:28.390Z,92839.63
2023-08-09T00:19:11.502Z,92834.59
2023-08-09T00:21:56.197Z,92835.56
2023-08-09T00:24:38.893Z,92838.94
2023-08-09T00:27:21.804Z,92832.78
2023-08-09T00:30:05.605Z,92835.19
2023-08-09T00:32:48.521Z,92844.56
2023-08-09T00:35:32.098Z,92842.59
2023-08-09T00:38:16.376Z,92841.44
2023-08-09T00:40:59.250Z,92837.78
2023-08-09T00:43:42.125Z,92836.34
2023-08-09T00:46:25.035Z,92844.94
2023-08-09T00:49:08.146Z,92835.38
2023-08-09T00:51:51.517Z,92843.78
2023-08-09T00:54:36.147Z,92846.16
2023-08-09T00:57:19.975Z,92848.41
2023-08-09T01:00:04.362Z,92837.41
2023-08-09T01:02:50.560Z,92840.97
2023-08-09T01:05:39.253Z,92846.16
2023-08-09T01:08:32.122Z,92847.78
2023-08-09T01:11:21.401Z,92847.78
2023-08-09T01:14:07.280Z,92845.81
2023-08-09T01:16:53.906Z,92840.63
2023-08-09T01:19:42.904Z,92837.34
2023-08-09T01:22:30.386Z,92840.84
2023-08-09T01:25:15.438Z,92836.22
2023-08-09T01:28:00.053Z,92833.19
2023-08-09T01:30:42.994Z,92833.53
2023-08-09T01:33:26.113Z,92829.50
2023-08-09T01:36:15.709Z,92832.47
2023-08-09T01:39:07.732Z,92829.06
2023-08-09T01:41:52.602Z,92833.69
2023-08-09T01:44:36.705Z,92830.59
2023-08-09T01:47:19.939Z,92832.00
2023-08-09T01:50:03.085Z,92828.25
2023-08-09T01:52:45.961Z,92824.50
2023-08-09T01:55:29.070Z,92825.13
2023-08-09T01:58:14.702Z,92819.75
2023-08-09T02:00:57.672Z,92819.75
2023-08-09T02:03:41.141Z,92816.19
2023-08-09T02:06:23.998Z,92823.75
2023-08-09T02:09:08.211Z,92816.81
2023-08-09T02:11:51.089Z,92817.59
2023-08-09T02:14:35.327Z,92818.41
2023-08-09T02:17:18.201Z,92813.22
2023-08-09T02:20:01.162Z,92815.97
2023-08-09T02:22:44.192Z,92816.97
2023-08-09T02:25:27.672Z,92812.59
2023-08-09T02:28:10.697Z,92818.56
2023-08-09T02:30:55.462Z,92817.94
2023-08-09T02:33:38.793Z,92821.72
2023-08-09T02:36:21.661Z,92817.09
2023-08-09T02:39:06.159Z,92818.28
2023-08-09T02:41:50.176Z,92813.63
2023-08-09T02:44:33.803Z,92813.50
2023-08-09T02:47:18.318Z,92819.25
2023-08-09T02:50:01.211Z,92814.97
2023-08-09T02:52:44.168Z,92818.75
2023-08-09T02:55:27.141Z,92825.88
2023-08-09T02:58:10.111Z,92827.03
2023-08-09T03:00:53.034Z,92823.84
2023-08-09T03:03:38.244Z,92818.03
2023-08-09T03:06:23.421Z,92818.81
2023-08-09T03:09:07.432Z,92817.22
2023-08-09T03:11:50.595Z,92818.19
2023-08-09T03:14:33.675Z,92819.00
2023-08-09T03:17:16.597Z,92816.16
2023-08-09T03:20:00.904Z,92817.94
2023-08-09T03:22:44.918Z,92805.34
2023-08-09T03:25:28.840Z,92804.38
2023-08-09T03:28:12.114Z,92809.56
2023-08-09T03:30:55.128Z,92805.34
2023-08-09T03:33:50.681Z,92807.13
2023-08-09T03:36:55.249Z,92809.91
2023-08-09T03:39:58.243Z,92811.53
2023-08-09T03:42:58.183Z,92811.09
2023-08-09T03:45:59.520Z,92813.22
2023-08-09T03:49:01.874Z,92804.03
2023-08-09T03:52:01.150Z,92805.78
2023-08-09T03:55:03.171Z,92801.44
2023-08-09T03:58:05.724Z,92798.84
2023-08-09T04:01:14.512Z,92805.19
2023-08-09T04:04:13.358Z,92805.97
2023-08-09T04:07:04.922Z,92805.34
2023-08-09T04:09:49.708Z,92802.06
2023-08-09T04:12:33.051Z,92798.31
2023-08-09T04:15:16.457Z,92806.69
2023-08-09T04:18:00.372Z,92797.03
2023-08-09T04:20:43.613Z,92795.50
2023-08-09T04:23:27.932Z,92798.44
2023-08-09T04:26:11.032Z,92792.16
2023-08-09T04:28:54.031Z,92791.44
2023-08-09T04:31:38.071Z,92786.31
2023-08-09T04:34:21.012Z,92781.03
2023-08-09T04:37:04.190Z,92787.84
2023-08-09T04:39:48.772Z,92798.84
2023-08-09T04:42:31.655Z,92795.91
2023-08-09T04:45:14.533Z,92796.44
2023-08-09T04:47:58.176Z,92792.88
2023-08-09T04:50:41.049Z,92790.53
2023-08-09T04:53:23.976Z,92790.41
2023-08-09T04:56:08.631Z,92803.25
2023-08-09T04:58:51.590Z,92790.63
2023-08-09T05:01:34.773Z,92800.78
2023-08-09T05:04:17.696Z,92792.69
2023-08-09T05:07:02.241Z,92795.91
2023-08-09T05:09:45.180Z,92802.97
2023-08-09T05:12:29.440Z,92792.75
2023-08-09T05:15:13.317Z,92784.13
2023-08-09T05:17:56.219Z,92786.84
2023-08-09T05:20:39.574Z,92786.16
2023-08-09T05:23:22.831Z,92786.41
2023-08-09T05:26:05.803Z,92789.28
2023-08-09T05:28:51.031Z,92798.44
2023-08-09T05:31:34.436Z,92788.56
2023-08-09T05:34:17.310Z,92795.81
2023-08-09T05:37:00.479Z,92799.81
2023-08-09T05:39:45.504Z,92803.84
2023-08-09T05:42:29.842Z,92810.44
2023-08-09T05:45:14.140Z,92809.81
2023-08-09T05:47:57.052Z,92817.75
2023-08-09T05:50:40.620Z,92821.31
2023-08-09T05:53:23.656Z,92832.47
2023-08-09T05:56:07.321Z,92827.28
2023-08-09T05:58:51.086Z,92818.25
2023-08-09T06:01:35.425Z,92832.38
2023-08-09T06:04:18.709Z,92831.91
2023-08-09T06:07:02.208Z,92834.50
2023-08-09T06:09:45.580Z,92836.47
2023-08-09T06:12:28.456Z,92830.47
2023-08-09T06:15:12.345Z,92819.97
2023-08-09T06:17:56.619Z,92821.56
2023-08-09T06:20:39.453Z,92820.41
2023-08-09T06:23:22.333Z,92828.97
2023-08-09T06:26:05.275Z,92823.81
2023-08-09T06:28:49.568Z,92826.22
2023-08-09T06:31:33.002Z,92829.97
2023-08-09T06:34:17.654Z,92830.47
2023-08-09T06:37:00.956Z,92829.97
2023-08-09T06:39:44.117Z,92830.47
2023-08-09T06:42:26.981Z,92830.84
2023-08-09T06:45:14.625Z,92826.28
2023-08-09T06:47:58.128Z,92832.59
2023-08-09T06:50:42.617Z,92834.91
2023-08-09T06:53:25.669Z,92834.56
2023-08-09T06:56:08.848Z,92832.25
2023-08-09T06:58:51.731Z,92834.22
2023-08-09T07:01:34.683Z,92828.25
2023-08-09T07:04:17.702Z,92834.03
2023-08-09T07:07:02.019Z,92828.34
2023-08-09T07:09:45.157Z,92820.69
2023-08-09T07:12:28.977Z,92822.09
2023-08-09T07:15:12.904Z,92829.72
2023-08-09T07:17:55.831Z,92830.31
2023-08-09T07:20:38.707Z,92824.53
2023-08-09T07:23:35.964Z,92831.75
2023-08-09T07:26:26.109Z,92832.75
2023-08-09T07:29:08.938Z,92837.97
2023-08-09T07:31:51.850Z,92842.66
2023-08-09T07:34:34.722Z,92842.66
2023-08-09T07:37:17.665Z,92856.63
2023-08-09T07:40:02.088Z,92848.16
2023-08-09T07:42:45.786Z,92853.16
2023-08-09T07:45:29.418Z,92862.34
2023-08-09T07:48:12.271Z,92842.47
2023-08-09T07:50:55.322Z,92850.84
2023-08-09T07:53:38.166Z,92858.28
2023-08-09T07:56:22.365Z,92858.09
2023-08-09T07:59:06.079Z,92857.75
2023-08-09T08:01:49.674Z,92861.94
2023-08-09T08:04:32.861Z,92850.94
2023-08-09T08:07:15.750Z,92861.31
2023-08-09T08:09:58.645Z,92858.09
2023-08-09T08:12:44.123Z,92859.59
2023-08-09T08:15:27.406Z,92865.06
2023-08-09T08:18:10.870Z,92865.22
2023-08-09T08:20:53.767Z,92862.81
2023-08-09T08:23:36.945Z,92866.63
2023-08-09T08:26:20.459Z,92867.09
2023-08-09T08:29:05.146Z,92861.22
2023-08-09T08:31:48.343Z,92875.94
2023-08-09T08:34:32.914Z,92877.66
2023-08-09T08:37:15.819Z,92884.44
2023-08-09T08:39:58.670Z,92879.53
2023-08-09T08:42:42.897Z,92875.84
2023-08-09T08:45:27.173Z,92874.44
2023-08-09T08:48:12.215Z,92869.69
2023-08-09T08:50:58.239Z,92872.13
2023-08-09T08:53:41.912Z,92870.25
2023-08-09T08:56:25.146Z,92876.59
2023-08-09T08:59:08.344Z,92876.22
2023-08-09T09:01:52.898Z,92879.41
2023-08-09T09:04:37.233Z,92882.00
2023-08-09T09:07:20.822Z,92865.88
2023-08-09T09:10:06.293Z,92880.44
2023-08-09T09:12:52.339Z,92877.56
2023-08-09T09:15:40.236Z,92876.75
2023-08-09T09:18:24.948Z,92879.41
2023-08-09T09:21:11.049Z,92874.00
2023-08-09T09:23:55.913Z,92886.50
2023-08-09T09:26:40.041Z,92888.09
2023-08-09T09:29:28.548Z,92884.97
2023-08-09T09:32:11.719Z,92886.78
2023-08-09T09:34:55.985Z,92893.38
2023-08-09T09:37:38.945Z,92889.53
2023-08-09T09:40:25.853Z,92893.38
2023-08-09T09:43:08.773Z,92887.13
2023-08-09T09:45:55.024Z,92887.13
2023-08-09T09:48:38.209Z,92888.81
2023-08-09T09:51:22.451Z,92880.06
2023-08-09T09:54:07.778Z,92891.22
2023-08-09T09:56:51.159Z,92891.94
2023-08-09T09:59:34.287Z,92883.06
2023-08-09T10:02:19.182Z,92887.28
2023-08-09T10:05:04.157Z,92888.63
2023-08-09T10:07:53.594Z,92880.88
2023-08-09T10:10:38.753Z,92876.97
2023-08-09T10:13:23.114Z,92892.03
2023-08-09T10:16:08.855Z,92895.53
2023-08-09T10:18:58.536Z,92888.91
2023-08-09T10:21:42.763Z,92883.13
2023-08-09T10:24:31.407Z,92882.19
2023-08-09T10:27:14.851Z,92888.09
2023-08-09T10:29:59.586Z,92885.78
2023-08-09T10:32:52.593Z,92883.03
2023-08-09T10:35:50.812Z,92880.78
2023-08-09T10:38:48.507Z,92883.03
2023-08-09T10:41:33.321Z,92875.25
2023-08-09T10:44:16.204Z,92885.03
2023-08-09T10:47:03.273Z,92884.09
2023-08-09T10:49:58.850Z,92884.19
2023-08-09T10:52:43.151Z,92887.03
2023-08-09T10:55:32.026Z,92881.34
2023-08-09T10:58:17.071Z,92882.22
2023-08-09T11:01:00.028Z,92884.19
2023-08-09T11:03:43.905Z,92886.03
2023-08-09T11:06:34.745Z,92880.38
2023-08-09T11:09:19.678Z,92883.38
2023-08-09T11:12:03.051Z,92886.69
2023-08-09T11:14:47.795Z,92880.09
2023-08-09T11:17:30.722Z,92888.03
2023-08-09T11:20:14.999Z,92881.31
2023-08-09T11:22:59.350Z,92879.22
2023-08-09T11:25:42.701Z,92876.97
2023-08-09T11:28:27.284Z,92877.69
2023-08-09T11:31:11.598Z,92878.13
2023-08-09T11:33:58.846Z,92875.09
2023-08-09T11:36:42.280Z,92877.41
2023-08-09T11:39:27.391Z,92877.13
2023-08-09T11:42:10.592Z,92880.69
2023-08-09T11:44:53.504Z,92881.06
2023-08-09T11:47:37.725Z,92883.94
2023-08-09T11:50:25.453Z,92879.09
2023-08-09T11:53:08.358Z,92873.47
2023-08-09T11:55:51.257Z,92875.72
2023-08-09T11:58:36.117Z,92875.16
2023-08-09T12:01:21.883Z,92876.16
2023-08-09T12:04:10.723Z,92873.13
2023-08-09T12:06:56.068Z,92877.50
2023-08-09T12:09:43.376Z,92880.06
2023-08-09T12:12:37.729Z,92892.25
2023-08-09T12:15:20.685Z,92885.09
2023-08-09T12:18:03.979Z,92885.53
2023-08-09T12:20:48.368Z,92883.81
2023-08-09T12:23:31.246Z,92888.91
2023-08-09T12:26:15.348Z,92889.81
2023-08-09T12:28:58.296Z,92890.28
2023-08-09T12:31:41.262Z,92885.72
2023-08-09T12:34:24.316Z,92893.56
2023-08-09T12:37:08.497Z,92895.19
2023-08-09T12:39:51.382Z,92896.78
2023-08-09T12:42:34.236Z,92894.00
2023-08-09T12:45:17.241Z,92892.81
2023-08-09T12:48:03.602Z,92898.47
2023-08-09T12:50:46.500Z,92899.53
2023-08-09T12:53:32.217Z,92900.31
2023-08-09T12:56:15.429Z,92894.16
2023-08-09T12:58:58.374Z,92891.06
2023-08-09T13:01:42.152Z,92879.34
2023-08-09T13:04:25.890Z,92872.88
2023-08-09T13:07:09.726Z,92890.72
2023-08-09T13:09:56.358Z,92885.81
2023-08-09T13:12:39.482Z,92892.66
2023-08-09T13:15:22.392Z,92902.72
2023-08-09T13:18:05.744Z,92907.16
2023-08-09T13:20:48.651Z,92897.13
2023-08-09T13:23:31.688Z,92899.16
2023-08-09T13:26:15.948Z,92901.66
2023-08-09T13:28:58.863Z,92905.63
2023-08-09T13:31:41.800Z,92896.59
2023-08-09T13:34:24.727Z,92901.31
2023-08-09T13:37:07.665Z,92913.72
2023-08-09T13:39:50.523Z,92911.13
2023-08-09T13:42:34.729Z,92915.31
2023-08-09T13:45:17.603Z,92921.13
2023-08-09T13:48:00.474Z,92908.34
2023-08-09T13:50:43.376Z,92908.59
2023-08-09T13:53:26.450Z,92909.69
2023-08-09T13:56:09.337Z,92906.38
2023-08-09T13:58:53.716Z,92903.41
2023-08-09T14:01:36.680Z,92907.84
2023-08-09T14:04:19.659Z,92898.88
2023-08-09T14:07:03.852Z,92915.25
2023-08-09T14:09:46.745Z,92922.13
2023-08-09T14:12:29.613Z,92920.41
2023-08-09T14:15:13.825Z,92908.13
2023-08-09T14:17:56.777Z,92902.66
2023-08-09T14:20:39.845Z,92900.41
2023-08-09T14:23:22.771Z,92898.09
2023-08-09T14:26:05.672Z,92899.13
2023-08-09T14:28:49.249Z,92906.75
2023-08-09T14:31:33.708Z,92911.97
2023-08-09T14:34:16.558Z,92909.84
2023-08-09T14:36:59.604Z,92914.03
2023-08-09T14:39:43.189Z,92925.25
2023-08-09T14:42:26.099Z,92921.66
2023-08-09T14:45:11.257Z,92919.22
2023-08-09T14:47:55.947Z,92915.63
2023-08-09T14:50:40.295Z,92915.84
2023-08-09T14:53:24.313Z,92924.81
2023-08-09T14:56:07.194Z,92924.56
2023-08-09T14:58:54.867Z,92926.31
2023-08-09T15:01:40.352Z,92930.50
2023-08-09T15:04:24.656Z,92934.69
2023-08-09T15:07:09.866Z,92934.25
2023-08-09T15:09:52.939Z,92935.44
2023-08-09T15:12:35.893Z,92949.38
2023-08-09T15:15:19.046Z,92950.41
2023-08-09T15:18:03.113Z,92946.38
2023-08-09T15:20:47.375Z,92942.38
2023-08-09T15:23:30.261Z,92949.53
2023-08-09T15:26:13.144Z,92951.69
2023-08-09T15:28:56.026Z,92950.25
2023-08-09T15:31:38.948Z,92948.63
2023-08-09T15:34:22.218Z,92942.03
2023-08-09T15:37:07.071Z,92949.00
2023-08-09T15:39:49.930Z,92953.63
2023-08-09T15:42:32.849Z,92943.81
2023-08-09T15:45:15.787Z,92943.22
2023-08-09T15:47:58.800Z,92948.44
2023-08-09T15:50:42.196Z,92940.63
2023-08-09T15:53:26.530Z,92939.19
2023-08-09T15:56:09.595Z,92946.19
2023-08-09T15:58:52.591Z,92936.59
2023-08-09T16:01:35.573Z,92937.22
2023-08-09T16:04:19.171Z,92934.44
2023-08-09T16:07:02.379Z,92938.63
2023-08-09T16:09:47.301Z,92950.63
2023-08-09T16:12:31.097Z,92954.41
2023-08-09T16:15:13.970Z,92957.81
2023-08-09T16:17:56.825Z,92978.34
2023-08-09T16:20:39.767Z,92989.31
2023-08-09T16:23:23.120Z,92996.28
2023-08-09T16:26:08.340Z,93001.69
2023-08-09T16:28:51.298Z,92992.28
2023-08-09T16:31:34.289Z,92992.28
2023-08-09T16:34:18.453Z,92995.06
2023-08-09T16:37:01.880Z,93008.03
2023-08-09T16:39:45.039Z,93004.84
2023-08-09T16:42:29.276Z,93006.81
2023-08-09T16:45:12.386Z,93006.19
2023-08-09T16:47:55.253Z,93004.97
2023-08-09T16:50:38.153Z,93009.09
2023-08-09T16:53:22.233Z,93010.28
2023-08-09T16:56:05.337Z,93017.25
2023-08-09T16:58:49.518Z,93010.47
2023-08-09T17:01:32.431Z,93004.28
2023-08-09T17:04:15.341Z,93005.69
2023-08-09T17:06:58.289Z,93010.53
2023-08-09T17:09:42.367Z,93018.13
2023-08-09T17:12:25.495Z,93021.53
2023-08-09T17:15:10.340Z,93023.50
2023-08-09T17:17:53.267Z,93023.69
2023-08-09T17:20:36.526Z,93018.94
2023-08-09T17:23:23.517Z,93027.53
2023-08-09T17:26:08.213Z,93018.94
2023-08-09T17:28:51.034Z,93026.56
2023-08-09T17:31:35.247Z,93025.78
2023-08-09T17:34:18.167Z,93022.91
2023-08-09T17:37:01.181Z,93020.50
2023-08-09T17:39:44.332Z,93027.50
2023-08-09T17:42:27.197Z,93030.25
2023-08-09T17:45:10.953Z,93034.66
2023-08-09T17:47:55.223Z,93032.06
2023-08-09T17:50:38.196Z,93033.03
2023-08-09T17:53:21.069Z,93037.81
2023-08-09T17:56:04.723Z,93046.25
2023-08-09T17:58:47.735Z,93039.56
2023-08-09T18:01:30.618Z,93045.28
2023-08-09T18:04:15.371Z,93051.66
2023-08-09T18:06:58.077Z,93047.00
2023-08-09T18:09:40.928Z,93050.94
2023-08-09T18:12:23.815Z,93052.13
2023-08-09T18:15:07.609Z,93058.84
2023-08-09T18:17:50.632Z,93058.28
2023-08-09T18:20:34.939Z,93063.72
2023-08-09T18:23:17.887Z,93072.41
2023-08-09T18:26:00.721Z,93069.56
2023-08-09T18:28:43.680Z,93074.75
2023-08-09T18:31:26.940Z,93075.00
2023-08-09T18:34:09.811Z,93082.41
2023-08-09T18:36:54.030Z,93087.44
2023-08-09T18:39:36.883Z,93088.13
2023-08-09T18:42:19.885Z,93092.44
2023-08-09T18:45:02.747Z,93091.94
2023-08-09T18:47:45.968Z,93099.59
2023-08-09T18:50:28.943Z,93099.69
2023-08-09T18:53:13.116Z,93105.09
2023-08-09T18:55:56.244Z,93114.81
2023-08-09T18:58:39.034Z,93112.41
2023-08-09T19:01:22.778Z,93121.94
2023-08-09T19:04:06.386Z,93125.84
2023-08-09T19:06:49.349Z,93131.50
2023-08-09T19:09:33.588Z,93135.06
2023-08-09T19:12:16.443Z,93141.38
2023-08-09T19:14:59.316Z,93138.69
2023-08-09T19:17:42.532Z,93135.28
2023-08-09T19:20:26.225Z,93143.84
2023-08-09T19:23:09.194Z,93140.00
2023-08-09T19:25:54.241Z,93144.38
2023-08-09T19:28:37.261Z,93142.63
2023-08-09T19:31:20.154Z,93141.88
2023-08-09T19:34:03.022Z,93142.78
2023-08-09T19:36:45.830Z,93142.41
2023-08-09T19:39:29.059Z,93153.28
2023-08-09T19:42:13.358Z,93159.09
2023-08-09T19:44:57.487Z,93154.63
2023-08-09T19:47:40.360Z,93153.97
2023-08-09T19:50:23.308Z,93161.13
2023-08-09T19:53:06.152Z,93161.75
2023-08-09T19:55:49.057Z,93156.75
2023-08-09T19:58:33.366Z,93151.28
2023-08-09T20:01:16.327Z,93150.16
2023-08-09T20:03:59.158Z,93157.28
2023-08-09T20:06:42.022Z,93165.50
2023-08-09T20:09:24.832Z,93162.25
2023-08-09T20:12:08.934Z,93159.38
2023-08-09T20:14:53.601Z,93161.63
2023-08-09T20:17:36.531Z,93161.28
2023-08-09T20:20:24.558Z,93155.47
2023-08-09T20:23:07.384Z,93160.19
2023-08-09T20:25:50.330Z,93159.81
2023-08-09T20:28:33.260Z,93157.72
2023-08-09T20:31:19.485Z,93157.56
2023-08-09T20:34:02.497Z,93160.81
2023-08-09T20:36:45.405Z,93156.28
2023-08-09T20:39:28.619Z,93161.47
2023-08-09T20:42:11.445Z,93164.84
2023-08-09T20:44:54.308Z,93163.06
2023-08-09T20:47:39.629Z,93166.31
2023-08-09T20:50:22.884Z,93157.56
2023-08-09T20:53:05.910Z,93158.53
2023-08-09T20:55:48.722Z,93166.16
2023-08-09T20:58:32.565Z,93163.38
2023-08-09T21:01:15.615Z,93166.66
2023-08-09T21:04:00.428Z,93158.75
2023-08-09T21:06:43.379Z,93167.78
2023-08-09T21:09:26.270Z,93168.59
2023-08-09T21:12:09.733Z,93168.94
2023-08-09T21:14:53.702Z,93166.00
2023-08-09T21:17:36.601Z,93160.22
2023-08-09T21:20:20.856Z,93169.56
2023-08-09T21:23:06.755Z,93174.56
2023-08-09T21:25:49.590Z,93182.00
2023-08-09T21:28:32.466Z,93177.47
2023-08-09T21:31:15.379Z,93183.78
2023-08-09T21:33:58.391Z,93188.63
2023-08-09T21:36:43.660Z,93179.56
2023-08-09T21:39:27.131Z,93182.34
2023-08-09T21:42:10.020Z,93175.06
2023-08-09T21:44:56.212Z,93178.63
2023-08-09T21:47:39.400Z,93176.88
2023-08-09T21:50:22.293Z,93178.47
2023-08-09T21:53:06.505Z,93187.66
2023-08-09T21:55:49.670Z,93192.53
2023-08-09T21:58:32.510Z,93193.84
2023-08-09T22:01:15.430Z,93188.66
2023-08-09T22:03:58.329Z,93191.25
2023-08-09T22:06:41.252Z,93197.53
2023-08-09T22:09:25.769Z,93189.28
2023-08-09T22:12:08.963Z,93196.09
2023-08-09T22:14:51.901Z,93205.28
2023-08-09T22:17:34.777Z,93198.19
2023-08-09T22:20:17.911Z,93206.88
2023-08-09T22:23:00.762Z,93203.03
2023-08-09T22:25:44.924Z,93203.50
2023-08-09T22:28:28.097Z,93199.97
2023-08-09T22:31:11.060Z,93200.75
2023-08-09T22:33:53.979Z,93204.31
2023-08-09T22:36:36.810Z,93201.56
2023-08-09T22:39:19.717Z,93198.63
2023-08-09T22:42:04.459Z,93196.72
2023-08-09T22:44:47.489Z,93193.78
2023-08-09T22:47:30.451Z,93197.66
2023-08-09T22:50:13.641Z,93210.25
2023-08-09T22:52:56.621Z,93216.69
2023-08-09T22:55:39.568Z,93216.50
2023-08-09T22:58:24.937Z,93212.31
2023-08-09T23:01:07.844Z,93207.00
2023-08-09T23:03:51.025Z,93209.72
2023-08-09T23:06:34.187Z,93209.28
2023-08-09T23:09:16.999Z,93210.72
2023-08-09T23:11:59.878Z,93212.69
2023-08-09T23:14:44.311Z,93215.44
2023-08-09T23:17:27.173Z,93219.94
2023-08-09T23:20:11.260Z,93208.00
2023-08-09T23:22:54.295Z,93214.78
2023-08-09T23:25:37.166Z,93205.75
2023-08-09T23:28:20.032Z,93215.63
2023-08-09T23:31:04.410Z,93214.13
2023-08-09T23:33:47.564Z,93214.47
2023-08-09T23:36:30.918Z,93215.09
2023-08-09T23:39:13.796Z,93208.97
2023-08-09T23:41:57.041Z,93206.91
2023-08-09T23:44:39.906Z,93201.38
2023-08-09T23:47:24.094Z,93201.59
2023-08-09T23:50:07.535Z,93205.13
2023-08-09T23:52:50.556Z,93199.63
2023-08-09T23:55:33.429Z,93201.75
2023-08-09T23:58:16.310Z,93196.72
